createdAt,value
2023-04-01T00:00:23.519Z,99569.54
2023-04-01T00:02:49.626Z,99573.75
2023-04-01T00:05:16.942Z,99573.46
2023-04-01T00:07:43.323Z,99573.42
2023-04-01T00:10:12.039Z,99577.80
2023-04-01T00:12:38.910Z,99584.19
2023-04-01T00:15:08.057Z,99583.77
2023-04-01T00:17:34.767Z,99585.00
2023-04-01T00:20:00.889Z,99589.10
2023-04-01T00:22:27.438Z,99589.75
2023-04-01T00:24:53.807Z,99588.30
2023-04-01T00:27:20.207Z,99587.50
2023-04-01T00:29:47.940Z,99588.29
2023-04-01T00:32:15.473Z,99589.55
2023-04-01T00:34:41.846Z,99584.80
2023-04-01T00:37:08.483Z,99582.51
2023-04-01T00:39:35.493Z,99583.52
2023-04-01T00:42:03.715Z,99580.95
2023-04-01T00:44:33.114Z,99583.84
2023-04-01T00:47:00.040Z,99588.58
2023-04-01T00:49:31.445Z,99590.19
2023-04-01T00:52:01.774Z,99589.02
2023-04-01T00:54:30.118Z,99586.88
2023-04-01T00:57:26.213Z,99588.67
2023-04-01T00:59:54.504Z,99591.69
2023-04-01T01:02:21.378Z,99602.98
2023-04-01T01:04:47.317Z,99607.34
2023-04-01T01:07:25.505Z,99605.86
2023-04-01T01:10:29.669Z,99601.32
2023-04-01T01:13:04.873Z,99597.69
2023-04-01T01:15:48.373Z,99597.38
2023-04-01T01:18:34.743Z,99602.52
2023-04-01T01:21:21.156Z,99600.49
2023-04-01T01:24:22.760Z,99594.22
2023-04-01T01:27:15.150Z,99596.77
2023-04-01T01:30:09.822Z,99602.66
2023-04-01T01:32:52.249Z,99607.48
2023-04-01T01:35:28.427Z,99597.95
2023-04-01T01:38:00.229Z,99598.36
2023-04-01T01:40:29.396Z,99594.56
2023-04-01T01:43:03.066Z,99591.56
2023-04-01T01:45:31.896Z,99588.59
2023-04-01T01:47:59.753Z,99590.67
2023-04-01T01:50:27.223Z,99586.64
2023-04-01T01:53:02.623Z,99587.83
2023-04-01T01:55:37.847Z,99584.51
2023-04-01T01:58:25.508Z,99581.39
2023-04-01T02:00:56.894Z,99575.14
2023-04-01T02:03:26.515Z,99576.64
2023-04-01T02:05:55.776Z,99573.48
2023-04-01T02:08:36.334Z,99567.46
2023-04-01T02:11:08.194Z,99564.88
2023-04-01T02:14:01.764Z,99565.68
2023-04-01T02:16:33.002Z,99572.27
2023-04-01T02:19:00.710Z,99583.21
2023-04-01T02:21:31.650Z,99585.84
2023-04-01T02:24:00.629Z,99586.61
2023-04-01T02:26:27.228Z,99585.17
2023-04-01T02:28:55.222Z,99580.56
2023-04-01T02:31:23.461Z,99579.79
2023-04-01T02:33:50.194Z,99578.98
2023-04-01T02:36:16.718Z,99581.73
2023-04-01T02:38:45.269Z,99583.83
2023-04-01T02:41:13.052Z,99581.58
2023-04-01T02:43:39.894Z,99579.73
2023-04-01T02:46:07.481Z,99579.08
2023-04-01T02:48:33.814Z,99577.86
2023-04-01T02:50:59.790Z,99577.08
2023-04-01T02:53:25.719Z,99574.35
2023-04-01T02:55:52.670Z,99579.14
2023-04-01T02:58:18.849Z,99580.77
2023-04-01T03:00:45.501Z,99579.56
2023-04-01T03:03:13.132Z,99583.70
2023-04-01T03:05:39.371Z,99587.95
2023-04-01T03:08:05.731Z,99593.54
2023-04-01T03:10:31.656Z,99592.19
2023-04-01T03:12:57.655Z,99585.86
2023-04-01T03:15:23.952Z,99586.04
2023-04-01T03:17:50.058Z,99585.55
2023-04-01T03:20:16.381Z,99585.91
2023-04-01T03:22:43.003Z,99584.80
2023-04-01T03:25:10.354Z,99581.06
2023-04-01T03:27:36.423Z,99580.18
2023-04-01T03:30:06.319Z,99580.98
2023-04-01T03:32:34.646Z,99579.98
2023-04-01T03:35:00.677Z,99584.05
2023-04-01T03:37:27.874Z,99587.13
2023-04-01T03:39:53.960Z,99592.48
2023-04-01T03:42:20.183Z,99595.64
2023-04-01T03:44:46.069Z,99595.28
2023-04-01T03:47:14.143Z,99592.20
2023-04-01T03:49:40.186Z,99593.25
2023-04-01T03:52:09.057Z,99599.66
2023-04-01T03:54:35.212Z,99600.48
2023-04-01T03:57:01.187Z,99593.79
2023-04-01T03:59:27.426Z,99598.02
2023-04-01T04:01:53.712Z,99604.09
2023-04-01T04:04:19.918Z,99603.42
2023-04-01T04:06:46.469Z,99598.14
2023-04-01T04:09:12.576Z,99599.86
2023-04-01T04:11:38.457Z,99601.43
2023-04-01T04:14:04.570Z,99604.09
2023-04-01T04:16:30.650Z,99609.60
2023-04-01T04:18:59.130Z,99615.31
2023-04-01T04:21:25.115Z,99615.77
2023-04-01T04:23:51.868Z,99623.12
2023-04-01T04:26:18.353Z,99626.17
2023-04-01T04:28:49.676Z,99626.89
2023-04-01T04:31:21.559Z,99628.09
2023-04-01T04:33:48.483Z,99627.30
2023-04-01T04:36:15.503Z,99629.90
2023-04-01T04:38:41.763Z,99633.95
2023-04-01T04:41:13.119Z,99641.33
2023-04-01T04:43:40.989Z,99645.11
2023-04-01T04:46:08.470Z,99644.27
2023-04-01T04:48:34.875Z,99642.42
2023-04-01T04:51:01.644Z,99639.86
2023-04-01T04:53:28.037Z,99643.96
2023-04-01T04:55:54.226Z,99642.16
2023-04-01T04:58:36.414Z,99646.17
2023-04-01T05:01:11.306Z,99651.05
2023-04-01T05:03:38.932Z,99648.88
2023-04-01T05:06:06.718Z,99642.96
2023-04-01T05:08:33.336Z,99644.42
2023-04-01T05:11:00.387Z,99647.14
2023-04-01T05:13:26.945Z,99652.10
2023-04-01T05:15:52.904Z,99656.35
2023-04-01T05:18:18.932Z,99653.22
2023-04-01T05:20:53.759Z,99658.84
2023-04-01T05:23:23.644Z,99656.02
2023-04-01T05:25:51.337Z,99658.88
2023-04-01T05:28:17.688Z,99664.48
2023-04-01T05:30:45.647Z,99664.71
2023-04-01T05:33:25.801Z,99662.13
2023-04-01T05:35:51.700Z,99666.40
2023-04-01T05:38:17.615Z,99664.65
2023-04-01T05:40:43.767Z,99661.39
2023-04-01T05:43:10.083Z,99658.13
2023-04-01T05:45:36.201Z,99654.60
2023-04-01T05:48:14.098Z,99653.20
2023-04-01T05:50:42.390Z,99649.38
2023-04-01T05:53:09.162Z,99646.09
2023-04-01T05:55:36.543Z,99648.96
2023-04-01T05:58:02.834Z,99647.98
2023-04-01T06:00:29.255Z,99652.98
2023-04-01T06:02:59.083Z,99655.65
2023-04-01T06:05:29.017Z,99660.08
2023-04-01T06:08:01.181Z,99661.99
2023-04-01T06:10:49.179Z,99670.33
2023-04-01T06:14:00.994Z,99678.41
2023-04-01T06:16:53.900Z,99678.77
2023-04-01T06:19:36.106Z,99672.91
2023-04-01T06:22:10.112Z,99677.82
2023-04-01T06:24:51.711Z,99682.21
2023-04-01T06:27:20.671Z,99678.70
2023-04-01T06:30:06.360Z,99677.98
2023-04-01T06:33:15.350Z,99677.47
2023-04-01T06:36:05.736Z,99678.88
2023-04-01T06:39:16.909Z,99680.44
2023-04-01T06:42:06.244Z,99678.62
2023-04-01T06:45:04.829Z,99679.31
2023-04-01T06:48:11.334Z,99685.84
2023-04-01T06:51:22.825Z,99689.20
2023-04-01T06:54:30.441Z,99694.65
2023-04-01T06:57:17.191Z,99705.67
2023-04-01T06:59:43.783Z,99704.17
2023-04-01T07:02:09.951Z,99702.53
2023-04-01T07:04:41.374Z,99697.36
2023-04-01T07:07:34.715Z,99703.23
2023-04-01T07:10:28.511Z,99702.26
2023-04-01T07:13:21.888Z,99706.20
2023-04-01T07:16:01.075Z,99704.52
2023-04-01T07:18:37.978Z,99709.79
2023-04-01T07:21:09.586Z,99709.43
2023-04-01T07:23:45.999Z,99715.73
2023-04-01T07:26:41.531Z,99719.39
2023-04-01T07:29:14.738Z,99717.08
2023-04-01T07:32:04.118Z,99726.20
2023-04-01T07:35:00.927Z,99721.13
2023-04-01T07:37:53.404Z,99718.92
2023-04-01T07:40:36.393Z,99722.82
2023-04-01T07:43:40.769Z,99724.91
2023-04-01T07:46:58.772Z,99722.90
2023-04-01T07:49:50.970Z,99724.60
2023-04-01T07:52:25.860Z,99726.14
2023-04-01T07:55:05.754Z,99729.20
2023-04-01T07:57:56.280Z,99728.76
2023-04-01T08:00:36.047Z,99726.98
2023-04-01T08:03:34.738Z,99730.98
2023-04-01T08:06:14.841Z,99732.43
2023-04-01T08:09:06.128Z,99730.21
2023-04-01T08:12:24.935Z,99724.55
2023-04-01T08:15:22.149Z,99726.52
2023-04-01T08:18:37.552Z,99723.89
2023-04-01T08:21:10.965Z,99724.49
2023-04-01T08:23:45.234Z,99728.89
2023-04-01T08:26:25.159Z,99727.62
2023-04-01T08:28:58.124Z,99729.48
2023-04-01T08:31:37.930Z,99731.20
2023-04-01T08:34:12.515Z,99723.66
2023-04-01T08:36:44.712Z,99722.55
2023-04-01T08:39:18.821Z,99717.48
2023-04-01T08:42:17.856Z,99718.14
2023-04-01T08:45:15.005Z,99721.24
2023-04-01T08:48:08.851Z,99716.50
2023-04-01T08:50:48.528Z,99718.30
2023-04-01T08:53:53.208Z,99726.02
2023-04-01T08:56:32.098Z,99726.83
2023-04-01T08:59:16.119Z,99730.77
2023-04-01T09:01:43.004Z,99731.14
2023-04-01T09:04:27.376Z,99729.88
2023-04-01T09:07:02.872Z,99724.45
2023-04-01T09:09:51.082Z,99727.01
2023-04-01T09:12:32.716Z,99728.98
2023-04-01T09:15:20.906Z,99732.77
2023-04-01T09:18:06.141Z,99731.44
2023-04-01T09:20:54.344Z,99731.46
2023-04-01T09:23:38.909Z,99728.15
2023-04-01T09:26:20.583Z,99728.49
2023-04-01T09:29:08.716Z,99735.95
2023-04-01T09:31:53.779Z,99736.61
2023-04-01T09:34:54.768Z,99735.38
2023-04-01T09:37:40.317Z,99729.52
2023-04-01T09:40:18.771Z,99726.19
2023-04-01T09:43:17.025Z,99727.38
2023-04-01T09:45:58.840Z,99729.05
2023-04-01T09:49:00.496Z,99725.70
2023-04-01T09:51:55.523Z,99727.86
2023-04-01T09:54:30.993Z,99727.02
2023-04-01T09:57:48.502Z,99728.10
2023-04-01T10:01:04.854Z,99724.80
2023-04-01T10:04:02.466Z,99724.63
2023-04-01T10:07:02.896Z,99718.55
2023-04-01T10:09:50.937Z,99719.98
2023-04-01T10:12:32.567Z,99722.92
2023-04-01T10:15:17.023Z,99720.06
2023-04-01T10:18:08.149Z,99716.33
2023-04-01T10:20:40.277Z,99711.13
2023-04-01T10:23:18.909Z,99704.46
2023-04-01T10:26:08.062Z,99705.95
2023-04-01T10:28:57.607Z,99697.16
2023-04-01T10:31:56.113Z,99698.20
2023-04-01T10:34:34.679Z,99694.69
2023-04-01T10:37:16.257Z,99695.16
2023-04-01T10:40:04.368Z,99687.70
2023-04-01T10:43:23.910Z,99686.60
2023-04-01T10:46:34.904Z,99683.63
2023-04-01T10:49:29.898Z,99684.21
2023-04-01T10:52:23.303Z,99685.96
2023-04-01T10:55:45.845Z,99687.63
2023-04-01T10:58:41.946Z,99683.99
2023-04-01T11:01:36.036Z,99681.95
2023-04-01T11:04:52.436Z,99678.17
2023-04-01T11:08:09.106Z,99679.52
2023-04-01T11:10:46.234Z,99676.52
2023-04-01T11:13:41.715Z,99675.54
2023-04-01T11:16:39.967Z,99669.14
2023-04-01T11:19:28.406Z,99665.19
2023-04-01T11:22:16.730Z,99671.83
2023-04-01T11:25:03.364Z,99668.46
2023-04-01T11:28:25.765Z,99665.91
2023-04-01T11:31:15.784Z,99667.53
2023-04-01T11:33:47.933Z,99664.42
2023-04-01T11:36:49.501Z,99661.41
2023-04-01T11:39:34.994Z,99664.36
2023-04-01T11:42:18.998Z,99659.61
2023-04-01T11:45:47.166Z,99661.13
2023-04-01T11:48:35.570Z,99653.86
2023-04-01T11:51:30.261Z,99654.79
2023-04-01T11:54:15.524Z,99656.50
2023-04-01T11:56:44.302Z,99661.09
2023-04-01T11:59:21.537Z,99656.96
2023-04-01T12:02:10.731Z,99654.83
2023-04-01T12:05:18.269Z,99655.48
2023-04-01T12:08:03.521Z,99657.94
2023-04-01T12:10:57.776Z,99663.33
2023-04-01T12:13:29.525Z,99661.31
2023-04-01T12:16:34.039Z,99660.63
2023-04-01T12:19:19.283Z,99656.10
2023-04-01T12:22:00.458Z,99654.73
2023-04-01T12:24:48.040Z,99655.27
2023-04-01T12:27:39.094Z,99650.30
2023-04-01T12:30:23.823Z,99645.07
2023-04-01T12:33:20.283Z,99645.33
2023-04-01T12:36:25.785Z,99645.33
2023-04-01T12:38:57.790Z,99637.91
2023-04-01T12:41:45.554Z,99632.50
2023-04-01T12:44:18.167Z,99637.73
2023-04-01T12:46:56.209Z,99633.52
2023-04-01T12:50:03.974Z,99632.50
2023-04-01T12:52:52.401Z,99634.27
2023-04-01T12:55:27.398Z,99636.50
2023-04-01T12:58:12.310Z,99638.54
2023-04-01T13:01:03.048Z,99632.92
2023-04-01T13:03:32.067Z,99632.23
2023-04-01T13:06:15.279Z,99630.09
2023-04-01T13:08:49.880Z,99631.77
2023-04-01T13:11:37.081Z,99622.08
2023-04-01T13:14:37.674Z,99626.98
2023-04-01T13:17:21.477Z,99619.69
2023-04-01T13:20:04.750Z,99615.46
2023-04-01T13:22:50.533Z,99612.13
2023-04-01T13:25:47.772Z,99609.05
2023-04-01T13:28:24.274Z,99599.37
2023-04-01T13:31:03.555Z,99595.57
2023-04-01T13:33:48.270Z,99596.27
2023-04-01T13:36:37.129Z,99596.39
2023-04-01T13:39:25.083Z,99587.00
2023-04-01T13:42:13.148Z,99584.34
2023-04-01T13:45:12.550Z,99577.06
2023-04-01T13:47:44.862Z,99565.64
2023-04-01T13:50:48.370Z,99561.74
2023-04-01T13:53:40.088Z,99553.44
2023-04-01T13:56:36.839Z,99548.73
2023-04-01T13:59:21.778Z,99545.19
2023-04-01T14:01:55.229Z,99546.75
2023-04-01T14:04:45.469Z,99540.52
2023-04-01T14:07:46.519Z,99540.25
2023-04-01T14:10:39.747Z,99537.33
2023-04-01T14:13:27.690Z,99538.39
2023-04-01T14:16:12.596Z,99538.51
2023-04-01T14:19:01.024Z,99539.96
2023-04-01T14:21:36.578Z,99538.82
2023-04-01T14:24:19.149Z,99539.78
2023-04-01T14:27:19.992Z,99535.95
2023-04-01T14:30:16.387Z,99530.41
2023-04-01T14:32:56.732Z,99532.69
2023-04-01T14:35:33.768Z,99526.79
2023-04-01T14:38:35.698Z,99522.84
2023-04-01T14:41:21.182Z,99516.95
2023-04-01T14:44:17.205Z,99513.52
2023-04-01T14:47:02.191Z,99507.33
2023-04-01T14:49:33.931Z,99504.04
2023-04-01T14:52:26.239Z,99496.83
2023-04-01T14:54:52.856Z,99496.05
2023-04-01T14:57:30.420Z,99498.30
2023-04-01T15:00:18.544Z,99499.46
2023-04-01T15:02:53.441Z,99503.09
2023-04-01T15:05:33.011Z,99504.08
2023-04-01T15:08:20.675Z,99505.42
2023-04-01T15:10:58.874Z,99503.48
2023-04-01T15:13:35.485Z,99498.45
2023-04-01T15:16:10.875Z,99496.66
2023-04-01T15:18:42.642Z,99497.48
2023-04-01T15:21:27.542Z,99494.17
2023-04-01T15:24:11.807Z,99490.66
2023-04-01T15:26:59.729Z,99492.55
2023-04-01T15:29:43.836Z,99489.36
2023-04-01T15:32:48.996Z,99488.65
2023-04-01T15:35:44.456Z,99483.09
2023-04-01T15:38:31.706Z,99482.98
2023-04-01T15:41:13.086Z,99479.68
2023-04-01T15:43:45.761Z,99480.55
2023-04-01T15:46:21.042Z,99484.33
2023-04-01T15:48:52.875Z,99484.83
2023-04-01T15:51:44.057Z,99486.28
2023-04-01T15:54:13.344Z,99487.46
2023-04-01T15:56:50.359Z,99486.34
2023-04-01T15:59:28.585Z,99487.21
2023-04-01T16:02:19.903Z,99486.30
2023-04-01T16:04:58.793Z,99489.31
2023-04-01T16:07:30.882Z,99490.77
2023-04-01T16:10:04.961Z,99490.98
2023-04-01T16:13:00.099Z,99490.17
2023-04-01T16:15:58.866Z,99490.55
2023-04-01T16:18:47.108Z,99484.60
2023-04-01T16:21:28.107Z,99479.41
2023-04-01T16:23:59.985Z,99475.35
2023-04-01T16:26:43.715Z,99476.27
2023-04-01T16:29:13.105Z,99470.21
2023-04-01T16:31:45.957Z,99471.16
2023-04-01T16:34:27.794Z,99473.52
2023-04-01T16:37:20.633Z,99475.17
2023-04-01T16:40:01.495Z,99463.34
2023-04-01T16:42:58.371Z,99464.52
2023-04-01T16:45:37.371Z,99457.32
2023-04-01T16:48:13.098Z,99461.77
2023-04-01T16:51:00.420Z,99465.91
2023-04-01T16:53:50.244Z,99469.48
2023-04-01T16:56:25.346Z,99466.59
2023-04-01T16:59:13.882Z,99470.76
2023-04-01T17:01:55.529Z,99468.08
2023-04-01T17:04:53.363Z,99473.70
2023-04-01T17:07:37.102Z,99468.54
2023-04-01T17:10:02.968Z,99470.55
2023-04-01T17:12:48.256Z,99468.71
2023-04-01T17:15:38.942Z,99467.78
2023-04-01T17:18:09.966Z,99467.78
2023-04-01T17:20:46.979Z,99475.59
2023-04-01T17:23:15.168Z,99474.23
2023-04-01T17:26:19.136Z,99473.17
2023-04-01T17:28:58.457Z,99475.82
2023-04-01T17:31:30.194Z,99479.09
2023-04-01T17:34:15.126Z,99484.15
2023-04-01T17:37:08.634Z,99491.22
2023-04-01T17:40:26.580Z,99491.94
2023-04-01T17:43:07.865Z,99490.70
2023-04-01T17:45:45.901Z,99494.30
2023-04-01T17:48:55.354Z,99496.35
2023-04-01T17:51:28.990Z,99500.75
2023-04-01T17:54:25.581Z,99506.64
2023-04-01T17:57:29.521Z,99508.23
2023-04-01T18:00:14.479Z,99511.83
2023-04-01T18:02:50.220Z,99517.05
2023-04-01T18:05:37.347Z,99518.39
2023-04-01T18:08:06.543Z,99524.02
2023-04-01T18:10:46.692Z,99527.95
2023-04-01T18:13:12.692Z,99523.06
2023-04-01T18:15:51.426Z,99528.64
2023-04-01T18:18:20.324Z,99535.17
2023-04-01T18:21:00.332Z,99533.13
2023-04-01T18:23:59.222Z,99531.06
2023-04-01T18:26:37.562Z,99532.85
2023-04-01T18:29:37.303Z,99539.93
2023-04-01T18:32:16.190Z,99541.64
2023-04-01T18:34:58.448Z,99545.34
2023-04-01T18:37:31.942Z,99552.02
2023-04-01T18:40:11.085Z,99557.30
2023-04-01T18:42:54.495Z,99560.06
2023-04-01T18:45:29.524Z,99562.27
2023-04-01T18:48:09.583Z,99565.09
2023-04-01T18:50:48.596Z,99567.56
2023-04-01T18:53:44.039Z,99566.57
2023-04-01T18:56:29.656Z,99568.60
2023-04-01T18:59:34.848Z,99572.44
2023-04-01T19:02:19.294Z,99575.72
2023-04-01T19:04:56.573Z,99573.94
2023-04-01T19:07:37.980Z,99580.11
2023-04-01T19:10:50.011Z,99584.48
2023-04-01T19:13:34.075Z,99585.40
2023-04-01T19:16:00.670Z,99589.20
2023-04-01T19:18:35.648Z,99591.33
2023-04-01T19:21:49.794Z,99593.24
2023-04-01T19:24:41.004Z,99588.32
2023-04-01T19:27:24.950Z,99592.95
2023-04-01T19:30:19.776Z,99595.20
2023-04-01T19:33:18.820Z,99599.70
2023-04-01T19:35:56.317Z,99598.89
2023-04-01T19:38:35.439Z,99605.04
2023-04-01T19:41:18.480Z,99609.73
2023-04-01T19:43:50.491Z,99616.34
2023-04-01T19:46:29.040Z,99619.67
2023-04-01T19:49:23.287Z,99615.91
2023-04-01T19:52:07.823Z,99616.08
2023-04-01T19:55:01.810Z,99614.38
2023-04-01T19:57:46.351Z,99617.64
2023-04-01T20:00:28.368Z,99623.85
2023-04-01T20:03:03.829Z,99631.63
2023-04-01T20:05:47.876Z,99633.48
2023-04-01T20:08:43.156Z,99636.46
2023-04-01T20:11:27.402Z,99642.65
2023-04-01T20:13:59.552Z,99642.88
2023-04-01T20:16:52.505Z,99647.89
2023-04-01T20:19:43.035Z,99648.23
2023-04-01T20:22:35.596Z,99650.16
2023-04-01T20:25:27.345Z,99647.84
2023-04-01T20:28:02.692Z,99652.02
2023-04-01T20:30:48.822Z,99653.36
2023-04-01T20:33:34.252Z,99659.45
2023-04-01T20:36:15.623Z,99657.12
2023-04-01T20:39:14.379Z,99657.40
2023-04-01T20:41:52.327Z,99659.16
2023-04-01T20:44:33.708Z,99659.01
2023-04-01T20:47:34.889Z,99663.81
2023-04-01T20:50:33.226Z,99661.94
2023-04-01T20:53:15.832Z,99661.23
2023-04-01T20:55:48.152Z,99660.96
2023-04-01T20:58:46.824Z,99665.31
2023-04-01T21:01:32.261Z,99669.92
2023-04-01T21:04:13.594Z,99672.58
2023-04-01T21:07:00.538Z,99677.01
2023-04-01T21:09:49.485Z,99677.72
2023-04-01T21:12:31.237Z,99680.77
2023-04-01T21:15:21.768Z,99684.09
2023-04-01T21:18:02.825Z,99685.45
2023-04-01T21:20:47.734Z,99687.94
2023-04-01T21:23:32.648Z,99692.64
2023-04-01T21:26:18.779Z,99694.31
2023-04-01T21:28:57.111Z,99696.27
2023-04-01T21:31:56.335Z,99698.32
2023-04-01T21:34:28.385Z,99700.76
2023-04-01T21:37:13.311Z,99697.99
2023-04-01T21:39:59.724Z,99702.05
2023-04-01T21:42:55.442Z,99701.77
2023-04-01T21:45:48.739Z,99701.23
2023-04-01T21:48:52.602Z,99703.19
2023-04-01T21:51:43.413Z,99703.70
2023-04-01T21:54:48.310Z,99705.36
2023-04-01T21:57:14.237Z,99699.17
2023-04-01T22:00:16.480Z,99704.11
2023-04-01T22:02:57.873Z,99705.00
2023-04-01T22:05:52.084Z,99701.04
2023-04-01T22:08:41.272Z,99701.41
2023-04-01T22:11:36.618Z,99705.29
2023-04-01T22:14:07.795Z,99704.42
2023-04-01T22:16:54.521Z,99704.36
2023-04-01T22:19:30.563Z,99705.57
2023-04-01T22:22:01.697Z,99707.52
2023-04-01T22:24:49.444Z,99704.50
2023-04-01T22:27:25.482Z,99704.62
2023-04-01T22:30:10.716Z,99703.50
2023-04-01T22:32:45.435Z,99701.38
2023-04-01T22:35:31.765Z,99702.45
2023-04-01T22:38:12.107Z,99697.73
2023-04-01T22:41:05.159Z,99693.36
2023-04-01T22:43:40.167Z,99699.02
2023-04-01T22:46:11.512Z,99690.73
2023-04-01T22:48:44.660Z,99696.65
2023-04-01T22:51:23.328Z,99697.44
2023-04-01T22:53:49.245Z,99695.45
2023-04-01T22:56:36.257Z,99697.08
2023-04-01T22:59:17.188Z,99698.05
2023-04-01T23:02:01.305Z,99695.30
2023-04-01T23:04:32.851Z,99697.98
2023-04-01T23:07:04.314Z,99697.44
2023-04-01T23:09:33.876Z,99694.53
2023-04-01T23:12:05.633Z,99697.64
2023-04-01T23:14:41.051Z,99696.62
2023-04-01T23:17:12.858Z,99698.02
2023-04-01T23:20:06.221Z,99695.05
2023-04-01T23:23:17.263Z,99693.71
2023-04-01T23:26:05.474Z,99691.55
2023-04-01T23:28:53.434Z,99693.85
2023-04-01T23:31:30.367Z,99694.94
2023-04-01T23:34:00.156Z,99695.35
2023-04-01T23:36:27.071Z,99694.91
2023-04-01T23:38:54.593Z,99695.23
2023-04-01T23:41:24.971Z,99696.98
2023-04-01T23:44:09.253Z,99698.77
2023-04-01T23:46:36.722Z,99699.32
2023-04-01T23:49:04.149Z,99698.75
2023-04-01T23:51:39.151Z,99697.58
2023-04-01T23:54:19.261Z,99701.22
2023-04-01T23:56:54.350Z,99697.90
2023-04-01T23:59:38.920Z,99698.95
